Terminal Aerodrome Forecast
Issued by NWS

Home | Current Version | Previous Version | Text Only | Print | Product List | Glossary On
Versions: 1 2 3 4 5 6 7 8 9 10 11 12
000
FTUS44 KBMX 072340
TAFANB
TAF
KANB 072340Z 0800/0824 25006KT P6SM SCT250
     FM081200 23005KT P6SM BKN050 BKN150
     FM081600 26011G21KT P6SM BKN050=

USA.gov is the U.S. government's official web portal to all federal, state and local government web resources and services.